Sunday, December 17, 2017, 1:45 PM CST
Back to Local

KHUT, Hutchinson Municipal Airport

Location: Hutchinson, KS, United States Lat: 38.067
Local Time: 1:45 PM CST (19:45 GMT) Lon: -97.867
Time Zone: US/Central Elev: 1541 ft

Show me the last for .
Show Decoded

2017-12-17 12:52 METAR KHUT 171852Z 00000KT 10SM CLR 10/04 A2996 RMK AO2 SLP143 T01000044 =
2017-12-17 11:52 METAR KHUT 171752Z 27006KT 10SM CLR 09/04 A2997 RMK AO2 SLP144 T00940044 10094
                 20022 58013 =
2017-12-17 10:52 METAR KHUT 171652Z 28005KT 10SM CLR 08/04 A2999 RMK AO2 SLP150 T00780044 =
2017-12-17 10:27 METAR KHUT 171627Z 26004KT 10SM SCT018 07/05 A2999 RMK AO2 T00720050 =
2017-12-17 09:52 METAR KHUT 171552Z 23007KT 10SM OVC019 06/05 A3001 RMK AO2 SLP157 T00610050 =
2017-12-17 08:52 METAR KHUT 171452Z 19007KT 3SM BR FEW004 BKN023 OVC050 04/04 A3001 RMK AO2
                 SLP160 T00440044 53020 =
2017-12-17 08:40 METAR KHUT 171440Z 17006KT 2 1/2SM BR FEW004 BKN023 OVC050 04/04 A3001 RMK AO2
                 T00390039 =
2017-12-17 08:27 METAR KHUT 171427Z 17006KT 2SM BR BKN023 03/03 A3001 RMK AO2 T00330033 =
2017-12-17 08:09 METAR KHUT 171409Z 17008KT 1 1/4SM BR CLR 02/02 A3001 RMK AO2 T00220022 =
2017-12-17 07:52 METAR KHUT 171352Z 18005KT 5SM BR CLR 03/03 A3000 RMK AO2 SLP156 T00280028 =
2017-12-17 07:19 METAR KHUT 171319Z 21004KT 6SM BR SCT006 04/03 A2997 RMK AO2 T00390033 =
2017-12-17 06:52 METAR KHUT 171252Z 19008KT 7SM OVC006 05/04 A2995 RMK AO2 SLP138 T00500044 =
2017-12-17 05:52 METAR KHUT 171152Z AUTO 17009KT 9SM BKN009 OVC065 05/04 A2995 RMK AO2 PRESRR
                 SLP138 60002 70002 T00500044 10100 20039 53011 =
2017-12-17 04:52 METAR KHUT 171052Z AUTO 17004KT 10SM OVC055 05/04 A2993 RMK AO2 SLP128 T00500044
                 =
2017-12-17 03:52 METAR KHUT 170952Z AUTO 17007KT 10SM SCT050 BKN065 05/04 A2990 RMK AO2 SLP118
                 T00500039 =
2017-12-17 02:52 METAR KHUT 170852Z AUTO 15008KT 10SM BKN050 OVC060 06/05 A2992 RMK AO2
                 RAB0755E07 SLP123 P0000 60002 T00610050 53006 =
2017-12-17 01:52 METAR KHUT 170752Z AUTO 15008KT 10SM OVC049 06/05 A2990 RMK AO2 RAB19E39 SLP118
                 P0001 T00610050 =
2017-12-17 00:52 METAR KHUT 170652Z AUTO 16007KT 10SM SCT038 OVC065 07/04 A2991 RMK AO2
                 RAB0554E51 SLP119 P0001 T00670044 =
2017-12-16 23:52 METAR KHUT 170552Z AUTO 17016KT 10SM FEW070 BKN090 OVC110 10/M01 A2990 RMK AO2
                 SLP117 T01001011 10122 20100 401611028 53007 =
2017-12-16 22:52 METAR KHUT 170452Z 17013KT 10SM BKN110 11/M03 A2988 RMK AO2 SLP110 T01111033 =
2017-12-16 21:52 METAR KHUT 170352Z 16010KT 10SM BKN110 11/M03 A2988 RMK AO2 SLP113 T01111028 =
2017-12-16 20:52 METAR KHUT 170252Z 18011KT 10SM CLR 11/M02 A2988 RMK AO2 SLP113 T01111022 51015
                 =
2017-12-16 19:52 METAR KHUT 170152Z 17011KT 10SM CLR 11/M02 A2987 RMK AO2 SLP114 T01061022 =
2017-12-16 18:52 METAR KHUT 170052Z 17013KT 10SM CLR 12/M02 A2985 RMK AO2 SLP108 T01171022 =
2017-12-16 17:52 METAR KHUT 162352Z 17013KT 10SM CLR 12/M04 A2983 RMK AO2 SLP100 T01171039 10161
                 20111 53012 =
2017-12-16 16:52 METAR KHUT 162252Z 16009KT 10SM CLR 13/M05 A2981 RMK AO2 SLP092 T01331050 =
2017-12-16 15:52 METAR KHUT 162152Z 18015G24KT 10SM CLR 15/M04 A2981 RMK AO2 SLP091 T01501044 =
2017-12-16 14:52 METAR KHUT 162052Z 18019G25KT 10SM CLR 16/M04 A2979 RMK AO2 SLP085 T01561039
                 56014 =
2017-12-16 13:52 METAR KHUT 161952Z 19017KT 10SM CLR 15/M03 A2979 RMK AO2 SLP085 T01501033 =

Support USWX by starting your Amazon purchase here.